sensor_id;sensor_type;location;lat;lon;timestamp;pressure;altitude;pressure_sealevel;temperature;humidity
56894;BME280;43392;50.078;13.704;2024-03-02T00:00:36;95974.69;;;7.26;100.00
56894;BME280;43392;50.078;13.704;2024-03-02T00:03:04;95974.69;;;7.26;100.00
56894;BME280;43392;50.078;13.704;2024-03-02T00:05:32;95983.47;;;7.27;100.00
56894;BME280;43392;50.078;13.704;2024-03-02T00:07:59;95982.69;;;7.26;100.00
56894;BME280;43392;50.078;13.704;2024-03-02T00:10:27;95978.16;;;7.27;100.00
56894;BME280;43392;50.078;13.704;2024-03-02T00:12:57;95977.38;;;7.26;100.00
56894;BME280;43392;50.078;13.704;2024-03-02T00:15:46;95977.38;;;7.26;100.00
56894;BME280;43392;50.078;13.704;2024-03-02T00:18:18;95981.63;;;7.27;100.00
56894;BME280;43392;50.078;13.704;2024-03-02T00:20:46;95977.38;;;7.26;100.00
56894;BME280;43392;50.078;13.704;2024-03-02T00:23:14;95969.38;;;7.26;100.00
56894;BME280;43392;50.078;13.704;2024-03-02T00:25:43;95974.41;;;7.28;100.00
56894;BME280;43392;50.078;13.704;2024-03-02T00:28:14;95977.88;;;7.28;100.00
56894;BME280;43392;50.078;13.704;2024-03-02T00:30:54;95974.41;;;7.28;100.00
56894;BME280;43392;50.078;13.704;2024-03-02T00:33:21;95969.63;;;7.25;100.00
56894;BME280;43392;50.078;13.704;2024-03-02T00:35:50;95974.41;;;7.28;100.00
56894;BME280;43392;50.078;13.704;2024-03-02T00:38:17;95976.28;;;7.27;100.00
56894;BME280;43392;50.078;13.704;2024-03-02T00:40:44;95973.34;;;7.29;100.00
56894;BME280;43392;50.078;13.704;2024-03-02T00:43:32;95971.75;;;7.28;100.00
56894;BME280;43392;50.078;13.704;2024-03-02T00:46:04;95973.34;;;7.29;100.00
56894;BME280;43392;50.078;13.704;2024-03-02T00:48:31;95976.03;;;7.29;100.00
56894;BME280;43392;50.078;13.704;2024-03-02T00:51:03;95976.03;;;7.29;100.00
56894;BME280;43392;50.078;13.704;2024-03-02T00:53:31;95981.34;;;7.29;100.00
56894;BME280;43392;50.078;13.704;2024-03-02T00:55:58;95977.59;;;7.30;100.00
56894;BME280;43392;50.078;13.704;2024-03-02T00:58:24;95972.25;;;7.30;100.00
56894;BME280;43392;50.078;13.704;2024-03-02T01:00:51;95967.72;;;7.30;100.00
56894;BME280;43392;50.078;13.704;2024-03-02T01:03:18;95974.13;;;7.29;100.00
56894;BME280;43392;50.078;13.704;2024-03-02T01:05:45;95979.19;;;7.31;100.00
56894;BME280;43392;50.078;13.704;2024-03-02T01:08:13;95977.31;;;7.31;100.00
56894;BME280;43392;50.078;13.704;2024-03-02T01:10:40;95976.53;;;7.31;100.00
56894;BME280;43392;50.078;13.704;2024-03-02T01:13:06;95962.09;;;7.32;100.00
56894;BME280;43392;50.078;13.704;2024-03-02T01:15:33;95965.88;;;7.31;100.00
56894;BME280;43392;50.078;13.704;2024-03-02T01:18:00;95964.59;;;7.23;100.00
56894;BME280;43392;50.078;13.704;2024-03-02T01:20:26;95969.13;;;7.23;100.00
56894;BME280;43392;50.078;13.704;2024-03-02T01:22:53;95967.25;;;7.23;100.00
56894;BME280;43392;50.078;13.704;2024-03-02T01:25:22;95965.09;;;7.25;100.00
56894;BME280;43392;50.078;13.704;2024-03-02T01:27:48;95972.81;;;7.27;100.00
56894;BME280;43392;50.078;13.704;2024-03-02T01:30:15;95965.63;;;7.27;100.00
56894;BME280;43392;50.078;13.704;2024-03-02T01:32:42;95960.78;;;7.29;100.00
56894;BME280;43392;50.078;13.704;2024-03-02T01:35:08;95962.69;;;7.29;100.00
56894;BME280;43392;50.078;13.704;2024-03-02T01:37:35;95964.56;;;7.28;100.00
56894;BME280;43392;50.078;13.704;2024-03-02T01:40:01;95968.03;;;7.29;100.00
56894;BME280;43392;50.078;13.704;2024-03-02T01:42:35;95965.34;;;7.29;100.00
56894;BME280;43392;50.078;13.704;2024-03-02T01:45:03;95964.56;;;7.28;100.00
56894;BME280;43392;50.078;13.704;2024-03-02T01:47:30;95973.34;;;7.29;100.00
56894;BME280;43392;50.078;13.704;2024-03-02T01:49:57;95964.25;;;7.30;100.00
56894;BME280;43392;50.078;13.704;2024-03-02T01:52:24;95968.78;;;7.29;100.00
56894;BME280;43392;50.078;13.704;2024-03-02T01:54:51;95967.72;;;7.30;100.00
56894;BME280;43392;50.078;13.704;2024-03-02T01:57:17;95965.56;;;7.32;100.00
56894;BME280;43392;50.078;13.704;2024-03-02T01:59:45;95963.19;;;7.31;100.00
56894;BME280;43392;50.078;13.704;2024-03-02T02:02:12;95967.19;;;7.33;100.00
56894;BME280;43392;50.078;13.704;2024-03-02T02:04:39;95966.38;;;7.33;100.00
56894;BME280;43392;50.078;13.704;2024-03-02T02:07:06;95969.03;;;7.33;100.00
56894;BME280;43392;50.078;13.704;2024-03-02T02:09:33;95966.38;;;7.33;100.00
56894;BME280;43392;50.078;13.704;2024-03-02T02:11:59;95960.53;;;7.31;100.00
56894;BME280;43392;50.078;13.704;2024-03-02T02:14:26;95970.91;;;7.32;100.00
56894;BME280;43392;50.078;13.704;2024-03-02T02:16:54;95960.53;;;7.31;100.00
56894;BME280;43392;50.078;13.704;2024-03-02T02:19:20;95963.72;;;7.33;100.00
56894;BME280;43392;50.078;13.704;2024-03-02T02:21:48;95965.56;;;7.32;100.00
56894;BME280;43392;50.078;13.704;2024-03-02T02:24:15;95964.50;;;7.33;100.00
56894;BME280;43392;50.078;13.704;2024-03-02T02:26:41;95959.44;;;7.32;100.00
56894;BME280;43392;50.078;13.704;2024-03-02T02:29:08;95953.31;;;7.31;100.00
56894;BME280;43392;50.078;13.704;2024-03-02T02:31:37;95960.25;;;7.32;100.00
56894;BME280;43392;50.078;13.704;2024-03-02T02:34:04;95951.72;;;7.30;100.00
56894;BME280;43392;50.078;13.704;2024-03-02T02:36:31;95952.78;;;7.29;100.00
56894;BME280;43392;50.078;13.704;2024-03-02T02:39:00;95961.84;;;7.33;100.00
56894;BME280;43392;50.078;13.704;2024-03-02T02:41:29;95949.56;;;7.32;100.00
56894;BME280;43392;50.078;13.704;2024-03-02T02:43:56;95954.91;;;7.32;100.00
56894;BME280;43392;50.078;13.704;2024-03-02T02:46:22;95942.94;;;7.30;100.00
56894;BME280;43392;50.078;13.704;2024-03-02T02:48:49;95946.09;;;7.32;100.00
56894;BME280;43392;50.078;13.704;2024-03-02T02:51:17;95943.44;;;7.32;100.00
56894;BME280;43392;50.078;13.704;2024-03-02T02:53:43;95938.09;;;7.32;100.00
56894;BME280;43392;50.078;13.704;2024-03-02T02:56:11;95941.06;;;7.30;100.00
56894;BME280;43392;50.078;13.704;2024-03-02T02:58:39;95948.78;;;7.32;100.00
56894;BME280;43392;50.078;13.704;2024-03-02T03:01:06;95951.44;;;7.32;100.00
56894;BME280;43392;50.078;13.704;2024-03-02T03:03:32;95951.72;;;7.30;100.00
56894;BME280;43392;50.078;13.704;2024-03-02T03:05:59;95953.03;;;7.33;100.00
56894;BME280;43392;50.078;13.704;2024-03-02T03:08:26;95951.19;;;7.33;100.00
56894;BME280;43392;50.078;13.704;2024-03-02T03:10:52;95954.91;;;7.32;100.00
56894;BME280;43392;50.078;13.704;2024-03-02T03:13:20;95954.63;;;7.34;100.00
56894;BME280;43392;50.078;13.704;2024-03-02T03:15:47;95958.38;;;7.33;100.00
56894;BME280;43392;50.078;13.704;2024-03-02T03:18:13;95962.63;;;7.34;100.00
56894;BME280;43392;50.078;13.704;2024-03-02T03:20:40;95955.72;;;7.33;100.00
56894;BME280;43392;50.078;13.704;2024-03-02T03:23:07;95959.97;;;7.34;100.00
56894;BME280;43392;50.078;13.704;2024-03-02T03:25:34;95966.91;;;7.35;100.00
56894;BME280;43392;50.078;13.704;2024-03-02T03:28:00;95958.09;;;7.34;100.00
56894;BME280;43392;50.078;13.704;2024-03-02T03:30:29;95953.56;;;7.35;100.00
56894;BME280;43392;50.078;13.704;2024-03-02T03:32:56;95968.75;;;7.34;100.00
56894;BME280;43392;50.078;13.704;2024-03-02T03:35:22;95965.28;;;7.34;100.00
56894;BME280;43392;50.078;13.704;2024-03-02T03:37:49;95961.31;;;7.31;100.00
56894;BME280;43392;50.078;13.704;2024-03-02T03:40:16;95965.88;;;7.31;100.00
56894;BME280;43392;50.078;13.704;2024-03-02T03:42:43;95958.94;;;7.30;100.00
56894;BME280;43392;50.078;13.704;2024-03-02T03:45:10;95953.09;;;7.28;100.00
56894;BME280;43392;50.078;13.704;2024-03-02T03:47:37;95956.03;;;7.26;100.00
56894;BME280;43392;50.078;13.704;2024-03-02T03:50:05;95963.50;;;7.24;100.00
56894;BME280;43392;50.078;13.704;2024-03-02T03:52:32;95960.06;;;7.24;100.00
56894;BME280;43392;50.078;13.704;2024-03-02T03:54:59;95954.19;;;7.22;100.00
56894;BME280;43392;50.078;13.704;2024-03-02T03:57:25;95954.47;;;7.20;100.00
56894;BME280;43392;50.078;13.704;2024-03-02T03:59:52;95960.09;;;7.19;100.00
56894;BME280;43392;50.078;13.704;2024-03-02T04:02:19;95957.69;;;7.17;100.00
56894;BME280;43392;50.078;13.704;2024-03-02T04:04:47;95959.31;;;7.13;100.00
56894;BME280;43392;50.078;13.704;2024-03-02T04:07:13;95958.53;;;7.13;100.00
56894;BME280;43392;50.078;13.704;2024-03-02T04:09:40;95962.78;;;7.14;100.00
56894;BME280;43392;50.078;13.704;2024-03-02T04:12:06;95958.53;;;7.13;100.00
56894;BME280;43392;50.078;13.704;2024-03-02T04:14:33;95962.00;;;7.13;100.00
56894;BME280;43392;50.078;13.704;2024-03-02T04:17:00;95968.13;;;7.14;100.00
56894;BME280;43392;50.078;13.704;2024-03-02T04:19:26;95969.69;;;7.15;100.00
56894;BME280;43392;50.078;13.704;2024-03-02T04:21:54;95959.63;;;7.12;100.00
56894;BME280;43392;50.078;13.704;2024-03-02T04:24:21;95960.97;;;7.09;100.00
56894;BME280;43392;50.078;13.704;2024-03-02T04:26:47;95958.00;;;7.11;100.00
56894;BME280;43392;50.078;13.704;2024-03-02T04:29:14;95965.19;;;7.10;100.00
56894;BME280;43392;50.078;13.704;2024-03-02T04:31:40;95967.88;;;7.10;100.00
56894;BME280;43392;50.078;13.704;2024-03-02T04:34:07;95975.06;;;7.10;100.00
56894;BME280;43392;50.078;13.704;2024-03-02T04:36:34;95970.81;;;7.09;100.00
56894;BME280;43392;50.078;13.704;2024-03-02T04:39:02;95981.47;;;7.09;99.86
56894;BME280;43392;50.078;13.704;2024-03-02T04:41:29;95981.75;;;7.07;99.79
56894;BME280;43392;50.078;13.704;2024-03-02T04:43:56;95980.44;;;7.05;99.78
56894;BME280;43392;50.078;13.704;2024-03-02T04:46:22;95982.84;;;7.06;99.95
56894;BME280;43392;50.078;13.704;2024-03-02T04:48:50;95980.97;;;7.07;99.79
56894;BME280;43392;50.078;13.704;2024-03-02T04:51:20;95987.38;;;7.01;99.88
56894;BME280;43392;50.078;13.704;2024-03-02T04:53:46;95993.53;;;7.01;99.91
56894;BME280;43392;50.078;13.704;2024-03-02T04:56:14;95996.19;;;7.01;99.85
56894;BME280;43392;50.078;13.704;2024-03-02T04:59:04;95997.25;;;7.00;99.83
56894;BME280;43392;50.078;13.704;2024-03-02T05:01:31;96002.56;;;7.00;99.75
56894;BME280;43392;50.078;13.704;2024-03-02T05:03:58;96016.19;;;6.99;99.61
56894;BME280;43392;50.078;13.704;2024-03-02T05:06:24;96018.06;;;6.98;99.59
56894;BME280;43392;50.078;13.704;2024-03-02T05:08:51;96012.72;;;6.98;99.68
56894;BME280;43392;50.078;13.704;2024-03-02T05:11:19;96019.66;;;6.99;99.92
56894;BME280;43392;50.078;13.704;2024-03-02T05:14:03;96017.00;;;6.99;99.63
56894;BME280;43392;50.078;13.704;2024-03-02T05:16:32;96029.53;;;6.99;99.43
56894;BME280;43392;50.078;13.704;2024-03-02T05:18:59;96016.19;;;6.99;99.55
56894;BME280;43392;50.078;13.704;2024-03-02T05:21:25;96026.56;;;7.00;99.65
56894;BME280;43392;50.078;13.704;2024-03-02T05:23:52;96030.31;;;6.99;99.38
56894;BME280;43392;50.078;13.704;2024-03-02T05:26:20;96026.84;;;6.99;99.41
56894;BME280;43392;50.078;13.704;2024-03-02T05:28:46;96029.53;;;6.99;99.52
56894;BME280;43392;50.078;13.704;2024-03-02T05:31:14;96025.78;;;7.00;99.20
56894;BME280;43392;50.078;13.704;2024-03-02T05:33:41;96030.31;;;6.99;99.24
56894;BME280;43392;50.078;13.704;2024-03-02T05:36:08;96027.66;;;6.99;99.33
56894;BME280;43392;50.078;13.704;2024-03-02T05:38:35;96043.66;;;6.99;99.01
56894;BME280;43392;50.078;13.704;2024-03-02T05:41:02;96034.84;;;6.99;98.96
56894;BME280;43392;50.078;13.704;2024-03-02T05:43:30;96049.78;;;7.00;99.12
56894;BME280;43392;50.078;13.704;2024-03-02T05:45:56;96046.31;;;6.99;98.93
56894;BME280;43392;50.078;13.704;2024-03-02T05:48:23;96048.44;;;7.02;98.87
56894;BME280;43392;50.078;13.704;2024-03-02T05:50:49;96049.22;;;7.03;98.94
56894;BME280;43392;50.078;13.704;2024-03-02T05:53:16;96051.63;;;7.04;98.98
56894;BME280;43392;50.078;13.704;2024-03-02T05:55:42;96050.81;;;7.04;99.04
56894;BME280;43392;50.078;13.704;2024-03-02T05:58:10;96048.97;;;7.04;98.84
56894;BME280;43392;50.078;13.704;2024-03-02T06:00:52;96054.28;;;7.04;98.92
56894;BME280;43392;50.078;13.704;2024-03-02T06:03:19;96048.97;;;7.04;98.89
56894;BME280;43392;50.078;13.704;2024-03-02T06:05:46;96058.28;;;7.07;98.91
56894;BME280;43392;50.078;13.704;2024-03-02T06:08:14;96056.38;;;7.07;98.87
56894;BME280;43392;50.078;13.704;2024-03-02T06:10:41;96062.50;;;7.08;98.45
56894;BME280;43392;50.078;13.704;2024-03-02T06:13:07;96058.78;;;7.09;98.47
56894;BME280;43392;50.078;13.704;2024-03-02T06:15:34;96063.03;;;7.10;98.68
56894;BME280;43392;50.078;13.704;2024-03-02T06:18:03;96062.50;;;7.13;98.36
56894;BME280;43392;50.078;13.704;2024-03-02T06:20:32;96065.97;;;7.13;98.45
56894;BME280;43392;50.078;13.704;2024-03-02T06:22:58;96066.75;;;7.14;98.17
56894;BME280;43392;50.078;13.704;2024-03-02T06:25:25;96067.28;;;7.16;98.23
56894;BME280;43392;50.078;13.704;2024-03-02T06:27:51;96082.22;;;7.17;98.30
56894;BME280;43392;50.078;13.704;2024-03-02T06:30:18;96078.47;;;7.18;98.04
56894;BME280;43392;50.078;13.704;2024-03-02T06:32:44;96071.25;;;7.18;97.83
56894;BME280;43392;50.078;13.704;2024-03-02T06:35:12;96080.28;;;7.22;97.70
56894;BME280;43392;50.078;13.704;2024-03-02T06:37:39;96080.03;;;7.24;97.84
56894;BME280;43392;50.078;13.704;2024-03-02T06:40:07;96074.72;;;7.24;97.64
56894;BME280;43392;50.078;13.704;2024-03-02T06:42:34;96066.16;;;7.22;97.51
56894;BME280;43392;50.078;13.704;2024-03-02T06:45:00;96073.91;;;7.23;97.66
56894;BME280;43392;50.078;13.704;2024-03-02T06:47:27;96078.44;;;7.23;97.49
56894;BME280;43392;50.078;13.704;2024-03-02T06:49:54;96080.03;;;7.24;97.49
56894;BME280;43392;50.078;13.704;2024-03-02T06:52:21;96077.91;;;7.26;97.42
56894;BME280;43392;50.078;13.704;2024-03-02T06:54:48;96080.56;;;7.26;97.43
56894;BME280;43392;50.078;13.704;2024-03-02T06:57:14;96083.75;;;7.28;97.33
56894;BME280;43392;50.078;13.704;2024-03-02T06:59:42;96077.34;;;7.29;97.31
56894;BME280;43392;50.078;13.704;2024-03-02T07:02:09;96086.41;;;7.28;96.94
56894;BME280;43392;50.078;13.704;2024-03-02T07:04:35;96097.88;;;7.28;97.06
56894;BME280;43392;50.078;13.704;2024-03-02T07:07:02;96096.53;;;7.31;97.02
56894;BME280;43392;50.078;13.704;2024-03-02T07:09:30;96100.25;;;7.30;97.04
56894;BME280;43392;50.078;13.704;2024-03-02T07:11:57;96098.09;;;7.32;96.89
56894;BME280;43392;50.078;13.704;2024-03-02T07:14:23;96102.94;;;7.30;96.71
56894;BME280;43392;50.078;13.704;2024-03-02T07:17:10;96109.34;;;7.29;96.45
56894;BME280;43392;50.078;13.704;2024-03-02T07:19:38;96114.41;;;7.30;96.62
56894;BME280;43392;50.078;13.704;2024-03-02T07:22:06;96115.19;;;7.31;96.17
56894;BME280;43392;50.078;13.704;2024-03-02T07:24:39;96111.22;;;7.28;96.01
56894;BME280;43392;50.078;13.704;2024-03-02T07:27:06;96119.75;;;7.25;95.83
56894;BME280;43392;50.078;13.704;2024-03-02T07:29:32;96118.16;;;7.24;96.04
56894;BME280;43392;50.078;13.704;2024-03-02T07:31:59;96117.38;;;7.24;96.11
56894;BME280;43392;50.078;13.704;2024-03-02T07:34:25;96128.00;;;7.29;96.34
56894;BME280;43392;50.078;13.704;2024-03-02T07:36:52;96122.91;;;7.32;96.08
56894;BME280;43392;50.078;13.704;2024-03-02T07:39:19;96127.97;;;7.34;95.88
56894;BME280;43392;50.078;13.704;2024-03-02T07:41:47;96138.09;;;7.37;96.26
56894;BME280;43392;50.078;13.704;2024-03-02T07:44:14;96148.22;;;7.40;96.26
56894;BME280;43392;50.078;13.704;2024-03-02T07:46:41;96136.19;;;7.43;96.25
56894;BME280;43392;50.078;13.704;2024-03-02T07:49:08;96151.41;;;7.42;96.41
56894;BME280;43392;50.078;13.704;2024-03-02T07:51:35;96159.13;;;7.44;96.17
56894;BME280;43392;50.078;13.704;2024-03-02T07:54:01;96161.25;;;7.47;96.38
56894;BME280;43392;50.078;13.704;2024-03-02T07:56:28;96169.50;;;7.50;96.23
56894;BME280;43392;50.078;13.704;2024-03-02T07:58:56;96164.97;;;7.51;96.37
56894;BME280;43392;50.078;13.704;2024-03-02T08:01:26;96170.03;;;7.52;96.14
56894;BME280;43392;50.078;13.704;2024-03-02T08:03:52;96167.34;;;7.52;95.98
56894;BME280;43392;50.078;13.704;2024-03-02T08:06:20;96163.63;;;7.53;96.07
56894;BME280;43392;50.078;13.704;2024-03-02T08:08:47;96163.06;;;7.56;96.06
56894;BME280;43392;50.078;13.704;2024-03-02T08:11:14;96167.34;;;7.57;96.08
56894;BME280;43392;50.078;13.704;2024-03-02T08:13:40;96172.66;;;7.62;95.70
56894;BME280;43392;50.078;13.704;2024-03-02T08:16:08;96173.69;;;7.66;95.76
56894;BME280;43392;50.078;13.704;2024-03-02T08:18:35;96168.34;;;7.66;95.49
56894;BME280;43392;50.078;13.704;2024-03-02T08:21:02;96176.84;;;7.68;95.64
56894;BME280;43392;50.078;13.704;2024-03-02T08:23:29;96175.81;;;7.69;95.48
56894;BME280;43392;50.078;13.704;2024-03-02T08:25:56;96163.78;;;7.72;95.54
56894;BME280;43392;50.078;13.704;2024-03-02T08:28:22;96166.16;;;7.73;95.16
56894;BME280;43392;50.078;13.704;2024-03-02T08:30:49;96156.00;;;7.75;95.13
56894;BME280;43392;50.078;13.704;2024-03-02T08:33:17;96153.06;;;7.77;94.83
56894;BME280;43392;50.078;13.704;2024-03-02T08:35:43;96154.09;;;7.81;94.58
56894;BME280;43392;50.078;13.704;2024-03-02T08:38:10;96158.09;;;7.83;94.84
56894;BME280;43392;50.078;13.704;2024-03-02T08:40:37;96159.13;;;7.87;94.23
56894;BME280;43392;50.078;13.704;2024-03-02T08:43:03;96154.03;;;7.91;94.08
56894;BME280;43392;50.078;13.704;2024-03-02T08:45:30;96153.22;;;7.95;94.13
56894;BME280;43392;50.078;13.704;2024-03-02T08:47:57;96151.56;;;7.99;93.67
56894;BME280;43392;50.078;13.704;2024-03-02T08:50:24;96156.88;;;8.04;93.72
56894;BME280;43392;50.078;13.704;2024-03-02T08:52:51;96165.94;;;8.09;93.30
56894;BME280;43392;50.078;13.704;2024-03-02T08:55:18;96160.81;;;8.12;93.02
56894;BME280;43392;50.078;13.704;2024-03-02T08:57:44;96162.94;;;8.15;92.71
56894;BME280;43392;50.078;13.704;2024-03-02T09:00:11;96169.88;;;8.16;92.70
56894;BME280;43392;50.078;13.704;2024-03-02T09:02:38;96158.41;;;8.16;92.71
56894;BME280;43392;50.078;13.704;2024-03-02T09:05:06;96165.06;;;8.18;92.37
56894;BME280;43392;50.078;13.704;2024-03-02T09:07:34;96166.09;;;8.22;92.40
56894;BME280;43392;50.078;13.704;2024-03-02T09:10:00;96173.81;;;8.24;92.22
56894;BME280;43392;50.078;13.704;2024-03-02T09:12:27;96178.38;;;8.28;92.31
56894;BME280;43392;50.078;13.704;2024-03-02T09:14:53;96173.53;;;8.30;92.32
56894;BME280;43392;50.078;13.704;2024-03-02T09:17:20;96179.09;;;8.34;92.15
56894;BME280;43392;50.078;13.704;2024-03-02T09:19:47;96162.00;;;8.35;91.73
56894;BME280;43392;50.078;13.704;2024-03-02T09:22:13;96162.19;;;8.43;91.53
56894;BME280;43392;50.078;13.704;2024-03-02T09:24:41;96163.47;;;8.51;91.18
56894;BME280;43392;50.078;13.704;2024-03-02T09:27:08;96160.19;;;8.59;90.92
56894;BME280;43392;50.078;13.704;2024-03-02T09:29:35;96163.84;;;8.68;90.80
56894;BME280;43392;50.078;13.704;2024-03-02T09:32:01;96163.75;;;8.78;90.51
56894;BME280;43392;50.078;13.704;2024-03-02T09:34:28;96157.72;;;8.91;89.95
56894;BME280;43392;50.078;13.704;2024-03-02T09:36:54;96156.53;;;9.02;89.68
56894;BME280;43392;50.078;13.704;2024-03-02T09:39:21;96158.53;;;9.15;89.35
56894;BME280;43392;50.078;13.704;2024-03-02T09:41:49;96155.72;;;9.25;89.05
56894;BME280;43392;50.078;13.704;2024-03-02T09:44:16;96156.69;;;9.34;88.57
56894;BME280;43392;50.078;13.704;2024-03-02T09:46:42;96161.69;;;9.41;88.42
56894;BME280;43392;50.078;13.704;2024-03-02T09:49:10;96164.28;;;9.46;88.24
56894;BME280;43392;50.078;13.704;2024-03-02T09:51:37;96161.31;;;9.48;87.76
56894;BME280;43392;50.078;13.704;2024-03-02T09:54:05;96171.16;;;9.52;87.67
56894;BME280;43392;50.078;13.704;2024-03-02T09:56:33;96157.78;;;9.52;87.56
56894;BME280;43392;50.078;13.704;2024-03-02T09:59:01;96160.47;;;9.52;87.34
56894;BME280;43392;50.078;13.704;2024-03-02T10:01:28;96159.38;;;9.53;87.12
56894;BME280;43392;50.078;13.704;2024-03-02T10:03:55;96160.19;;;9.54;86.99
56894;BME280;43392;50.078;13.704;2024-03-02T10:06:25;96159.59;;;9.57;86.98
56894;BME280;43392;50.078;13.704;2024-03-02T10:08:52;96147.75;;;9.63;86.95
56894;BME280;43392;50.078;13.704;2024-03-02T10:11:28;96147.69;;;9.68;86.58
56894;BME280;43392;50.078;13.704;2024-03-02T10:14:07;96141.69;;;9.76;86.18
56894;BME280;43392;50.078;13.704;2024-03-02T10:16:35;96140.94;;;9.89;86.40
56894;BME280;43392;50.078;13.704;2024-03-02T10:19:23;96140.00;;;9.98;85.73
56894;BME280;43392;50.078;13.704;2024-03-02T10:21:53;96143.31;;;10.09;85.62
56894;BME280;43392;50.078;13.704;2024-03-02T10:24:21;96145.06;;;10.19;85.37
56894;BME280;43392;50.078;13.704;2024-03-02T10:26:47;96142.00;;;10.25;84.95
56894;BME280;43392;50.078;13.704;2024-03-02T10:29:16;96141.94;;;10.30;84.68
56894;BME280;43392;50.078;13.704;2024-03-02T10:31:44;96140.34;;;10.29;84.42
56894;BME280;43392;50.078;13.704;2024-03-02T10:34:12;96143.53;;;10.31;84.21
56894;BME280;43392;50.078;13.704;2024-03-02T10:36:41;96141.34;;;10.33;84.13
56894;BME280;43392;50.078;13.704;2024-03-02T10:39:09;96143.56;;;10.45;83.81
56894;BME280;43392;50.078;13.704;2024-03-02T10:41:37;96131.88;;;10.54;83.44
56894;BME280;43392;50.078;13.704;2024-03-02T10:44:06;96141.59;;;10.50;83.06
56894;BME280;43392;50.078;13.704;2024-03-02T10:46:35;96144.19;;;10.55;82.77
56894;BME280;43392;50.078;13.704;2024-03-02T10:49:03;96150.06;;;10.57;82.65
56894;BME280;43392;50.078;13.704;2024-03-02T10:51:31;96145.00;;;10.70;82.13
56894;BME280;43392;50.078;13.704;2024-03-02T10:53:59;96143.81;;;10.76;81.71
56894;BME280;43392;50.078;13.704;2024-03-02T10:56:29;96147.03;;;10.78;81.40
56894;BME280;43392;50.078;13.704;2024-03-02T10:59:01;96151.59;;;10.77;80.92
56894;BME280;43392;50.078;13.704;2024-03-02T11:01:29;96139.66;;;10.83;80.89
56894;BME280;43392;50.078;13.704;2024-03-02T11:03:58;96140.28;;;10.94;80.26
56894;BME280;43392;50.078;13.704;2024-03-02T11:06:26;96148.63;;;11.06;80.02
56894;BME280;43392;50.078;13.704;2024-03-02T11:08:55;96147.41;;;11.12;80.18
56894;BME280;43392;50.078;13.704;2024-03-02T11:11:28;96142.56;;;11.14;79.93
56894;BME280;43392;50.078;13.704;2024-03-02T11:13:57;96137.97;;;11.14;79.97
56894;BME280;43392;50.078;13.704;2024-03-02T11:16:34;96136.69;;;11.12;79.68
56894;BME280;43392;50.078;13.704;2024-03-02T11:19:05;96139.38;;;11.12;79.33
56894;BME280;43392;50.078;13.704;2024-03-02T11:21:33;96123.00;;;11.13;79.44
56894;BME280;43392;50.078;13.704;2024-03-02T11:24:00;96138.88;;;11.10;79.41
56894;BME280;43392;50.078;13.704;2024-03-02T11:26:28;96128.94;;;11.10;79.47
56894;BME280;43392;50.078;13.704;2024-03-02T11:28:54;96133.50;;;11.10;79.28
56894;BME280;43392;50.078;13.704;2024-03-02T11:31:59;96135.69;;;11.08;79.15
56894;BME280;43392;50.078;13.704;2024-03-02T11:34:31;96131.31;;;11.12;79.00
56894;BME280;43392;50.078;13.704;2024-03-02T11:36:58;96127.47;;;11.18;78.98
56894;BME280;43392;50.078;13.704;2024-03-02T11:39:25;96128.16;;;11.23;78.96
56894;BME280;43392;50.078;13.704;2024-03-02T11:41:52;96133.72;;;11.27;78.76
56894;BME280;43392;50.078;13.704;2024-03-02T11:44:19;96127.44;;;11.31;78.39
56894;BME280;43392;50.078;13.704;2024-03-02T11:46:46;96129.63;;;11.43;77.91
56894;BME280;43392;50.078;13.704;2024-03-02T11:49:14;96118.75;;;11.48;77.33
56894;BME280;43392;50.078;13.704;2024-03-02T11:51:53;96119.88;;;11.47;76.97
56894;BME280;43392;50.078;13.704;2024-03-02T11:54:27;96121.66;;;11.52;76.96
56894;BME280;43392;50.078;13.704;2024-03-02T11:56:58;96118.53;;;11.58;76.95
56894;BME280;43392;50.078;13.704;2024-03-02T11:59:26;96121.13;;;11.63;76.57
56894;BME280;43392;50.078;13.704;2024-03-02T12:01:53;96118.34;;;11.68;76.54
56894;BME280;43392;50.078;13.704;2024-03-02T12:04:21;96113.38;;;11.75;76.27
56894;BME280;43392;50.078;13.704;2024-03-02T12:06:48;96103.78;;;11.83;75.98
56894;BME280;43392;50.078;13.704;2024-03-02T12:09:18;96103.19;;;11.86;75.03
56894;BME280;43392;50.078;13.704;2024-03-02T12:11:44;96104.66;;;11.92;74.65
56894;BME280;43392;50.078;13.704;2024-03-02T12:14:11;96108.50;;;11.99;74.59
56894;BME280;43392;50.078;13.704;2024-03-02T12:16:38;96104.50;;;12.11;73.88
56894;BME280;43392;50.078;13.704;2024-03-02T12:19:06;96097.59;;;12.18;73.05
56894;BME280;43392;50.078;13.704;2024-03-02T12:21:33;96096.69;;;12.23;72.91
56894;BME280;43392;50.078;13.704;2024-03-02T12:23:59;96089.78;;;12.30;73.09
56894;BME280;43392;50.078;13.704;2024-03-02T12:26:28;96092.31;;;12.35;73.29
56894;BME280;43392;50.078;13.704;2024-03-02T12:28:55;96090.72;;;12.34;72.93
56894;BME280;43392;50.078;13.704;2024-03-02T12:31:22;96098.81;;;12.34;73.12
56894;BME280;43392;50.078;13.704;2024-03-02T12:33:48;96101.97;;;12.36;73.26
56894;BME280;43392;50.078;13.704;2024-03-02T12:36:15;96092.50;;;12.39;73.01
56894;BME280;43392;50.078;13.704;2024-03-02T12:38:43;96096.47;;;12.41;72.84
56894;BME280;43392;50.078;13.704;2024-03-02T12:41:10;96090.47;;;12.44;72.62
56894;BME280;43392;50.078;13.704;2024-03-02T12:43:39;96090.66;;;12.48;72.29
56894;BME280;43392;50.078;13.704;2024-03-02T12:46:06;96088.44;;;12.50;72.58
56894;BME280;43392;50.078;13.704;2024-03-02T12:48:32;96082.94;;;12.55;72.17
56894;BME280;43392;50.078;13.704;2024-03-02T12:50:59;96087.09;;;12.61;71.77
56894;BME280;43392;50.078;13.704;2024-03-02T12:53:26;96089.03;;;12.69;71.68
56894;BME280;43392;50.078;13.704;2024-03-02T12:55:52;96082.53;;;12.70;71.05
56894;BME280;43392;50.078;13.704;2024-03-02T12:58:22;96081.44;;;12.71;71.46